sensor_id;sensor_type;location;lat;lon;timestamp;P1;durP1;ratioP1;P2;durP2;ratioP2
434;SDS011;204;48.942;9.256;2023-04-28T00:01:10;6.60;;;6.20;;
434;SDS011;204;48.942;9.256;2023-04-28T00:03:36;5.37;;;4.97;;
434;SDS011;204;48.942;9.256;2023-04-28T00:06:01;8.13;;;6.30;;
434;SDS011;204;48.942;9.256;2023-04-28T00:08:28;6.60;;;6.20;;
434;SDS011;204;48.942;9.256;2023-04-28T00:10:53;6.07;;;5.77;;
434;SDS011;204;48.942;9.256;2023-04-28T00:13:19;5.87;;;5.33;;
434;SDS011;204;48.942;9.256;2023-04-28T00:15:45;5.60;;;5.30;;
434;SDS011;204;48.942;9.256;2023-04-28T00:18:10;8.67;;;7.00;;
434;SDS011;204;48.942;9.256;2023-04-28T00:20:36;8.57;;;8.10;;
434;SDS011;204;48.942;9.256;2023-04-28T00:23:01;8.37;;;7.90;;
434;SDS011;204;48.942;9.256;2023-04-28T00:25:27;8.50;;;8.03;;
434;SDS011;204;48.942;9.256;2023-04-28T00:27:52;8.40;;;6.90;;
434;SDS011;204;48.942;9.256;2023-04-28T00:30:18;10.07;;;9.07;;
434;SDS011;204;48.942;9.256;2023-04-28T00:32:44;10.50;;;8.13;;
434;SDS011;204;48.942;9.256;2023-04-28T00:35:09;8.70;;;7.67;;
434;SDS011;204;48.942;9.256;2023-04-28T00:37:36;7.63;;;7.23;;
434;SDS011;204;48.942;9.256;2023-04-28T00:40:01;8.07;;;7.45;;
434;SDS011;204;48.942;9.256;2023-04-28T00:42:27;9.93;;;7.93;;
434;SDS011;204;48.942;9.256;2023-04-28T00:44:53;8.80;;;8.23;;
434;SDS011;204;48.942;9.256;2023-04-28T00:47:18;8.77;;;8.27;;
434;SDS011;204;48.942;9.256;2023-04-28T00:49:44;17.43;;;10.10;;
434;SDS011;204;48.942;9.256;2023-04-28T00:52:11;8.85;;;8.35;;
434;SDS011;204;48.942;9.256;2023-04-28T00:54:37;8.53;;;8.03;;
434;SDS011;204;48.942;9.256;2023-04-28T00:57:02;10.23;;;9.40;;
434;SDS011;204;48.942;9.256;2023-04-28T00:59:28;9.90;;;9.40;;
434;SDS011;204;48.942;9.256;2023-04-28T01:01:54;8.73;;;8.23;;
434;SDS011;204;48.942;9.256;2023-04-28T01:04:20;8.90;;;8.50;;
434;SDS011;204;48.942;9.256;2023-04-28T01:06:48;9.43;;;8.93;;
434;SDS011;204;48.942;9.256;2023-04-28T01:09:14;10.13;;;8.68;;
434;SDS011;204;48.942;9.256;2023-04-28T01:11:40;8.73;;;8.23;;
434;SDS011;204;48.942;9.256;2023-04-28T01:14:06;9.40;;;8.90;;
434;SDS011;204;48.942;9.256;2023-04-28T01:16:32;9.03;;;8.53;;
434;SDS011;204;48.942;9.256;2023-04-28T01:18:57;9.68;;;9.15;;
434;SDS011;204;48.942;9.256;2023-04-28T01:21:29;12.18;;;9.25;;
434;SDS011;204;48.942;9.256;2023-04-28T01:23:59;10.50;;;9.95;;
434;SDS011;204;48.942;9.256;2023-04-28T01:26:26;9.05;;;8.52;;
434;SDS011;204;48.942;9.256;2023-04-28T01:28:51;10.87;;;10.27;;
434;SDS011;204;48.942;9.256;2023-04-28T01:31:17;10.10;;;9.60;;
434;SDS011;204;48.942;9.256;2023-04-28T01:33:44;9.95;;;9.45;;
434;SDS011;204;48.942;9.256;2023-04-28T01:36:09;11.60;;;11.00;;
434;SDS011;204;48.942;9.256;2023-04-28T01:38:35;15.13;;;11.20;;
434;SDS011;204;48.942;9.256;2023-04-28T01:41:01;10.73;;;10.13;;
434;SDS011;204;48.942;9.256;2023-04-28T01:43:26;10.20;;;9.70;;
434;SDS011;204;48.942;9.256;2023-04-28T01:45:52;11.10;;;10.13;;
434;SDS011;204;48.942;9.256;2023-04-28T01:48:18;11.40;;;9.53;;
434;SDS011;204;48.942;9.256;2023-04-28T01:50:43;10.03;;;8.73;;
434;SDS011;204;48.942;9.256;2023-04-28T01:53:09;9.53;;;8.93;;
434;SDS011;204;48.942;9.256;2023-04-28T01:55:35;9.70;;;9.20;;
434;SDS011;204;48.942;9.256;2023-04-28T01:58:39;12.25;;;8.63;;
434;SDS011;204;48.942;9.256;2023-04-28T02:01:05;10.03;;;9.20;;
434;SDS011;204;48.942;9.256;2023-04-28T02:03:30;9.50;;;8.90;;
434;SDS011;204;48.942;9.256;2023-04-28T02:05:56;9.63;;;9.13;;
434;SDS011;204;48.942;9.256;2023-04-28T02:08:22;11.17;;;10.57;;
434;SDS011;204;48.942;9.256;2023-04-28T02:10:47;10.13;;;9.63;;
434;SDS011;204;48.942;9.256;2023-04-28T02:13:13;9.90;;;9.40;;
434;SDS011;204;48.942;9.256;2023-04-28T02:15:41;11.43;;;9.70;;
434;SDS011;204;48.942;9.256;2023-04-28T02:18:08;11.27;;;9.55;;
434;SDS011;204;48.942;9.256;2023-04-28T02:20:34;9.63;;;9.13;;
434;SDS011;204;48.942;9.256;2023-04-28T02:23:00;9.00;;;8.50;;
434;SDS011;204;48.942;9.256;2023-04-28T02:25:25;9.77;;;8.90;;
434;SDS011;204;48.942;9.256;2023-04-28T02:27:51;10.20;;;9.70;;
434;SDS011;204;48.942;9.256;2023-04-28T02:30:17;9.77;;;9.10;;
434;SDS011;204;48.942;9.256;2023-04-28T02:32:42;8.63;;;8.13;;
434;SDS011;204;48.942;9.256;2023-04-28T02:35:08;9.80;;;9.30;;
434;SDS011;204;48.942;9.256;2023-04-28T02:37:33;10.97;;;9.37;;
434;SDS011;204;48.942;9.256;2023-04-28T02:39:59;10.00;;;9.50;;
434;SDS011;204;48.942;9.256;2023-04-28T02:42:25;9.90;;;8.83;;
434;SDS011;204;48.942;9.256;2023-04-28T02:44:50;11.10;;;10.30;;
434;SDS011;204;48.942;9.256;2023-04-28T02:47:16;10.30;;;9.80;;
434;SDS011;204;48.942;9.256;2023-04-28T02:49:41;10.20;;;9.30;;
434;SDS011;204;48.942;9.256;2023-04-28T02:52:07;11.67;;;10.37;;
434;SDS011;204;48.942;9.256;2023-04-28T02:54:33;11.37;;;10.40;;
434;SDS011;204;48.942;9.256;2023-04-28T02:57:00;10.60;;;10.02;;
434;SDS011;204;48.942;9.256;2023-04-28T02:59:27;11.07;;;9.48;;
434;SDS011;204;48.942;9.256;2023-04-28T03:01:53;10.70;;;10.10;;
434;SDS011;204;48.942;9.256;2023-04-28T03:04:19;10.77;;;9.70;;
434;SDS011;204;48.942;9.256;2023-04-28T03:06:44;9.33;;;8.83;;
434;SDS011;204;48.942;9.256;2023-04-28T03:09:10;10.32;;;9.20;;
434;SDS011;204;48.942;9.256;2023-04-28T03:11:36;10.60;;;9.90;;
434;SDS011;204;48.942;9.256;2023-04-28T03:14:02;9.77;;;9.27;;
434;SDS011;204;48.942;9.256;2023-04-28T03:16:28;9.90;;;9.40;;
434;SDS011;204;48.942;9.256;2023-04-28T03:18:53;9.40;;;8.90;;
434;SDS011;204;48.942;9.256;2023-04-28T03:21:19;10.17;;;9.67;;
434;SDS011;204;48.942;9.256;2023-04-28T03:23:45;9.50;;;9.00;;
434;SDS011;204;48.942;9.256;2023-04-28T03:26:10;9.00;;;8.50;;
434;SDS011;204;48.942;9.256;2023-04-28T03:28:36;9.90;;;9.40;;
434;SDS011;204;48.942;9.256;2023-04-28T03:31:01;8.73;;;8.23;;
434;SDS011;204;48.942;9.256;2023-04-28T03:33:27;9.90;;;9.40;;
434;SDS011;204;48.942;9.256;2023-04-28T03:35:53;9.70;;;9.20;;
434;SDS011;204;48.942;9.256;2023-04-28T03:38:18;9.97;;;9.47;;
434;SDS011;204;48.942;9.256;2023-04-28T03:40:44;9.20;;;8.70;;
434;SDS011;204;48.942;9.256;2023-04-28T03:43:10;10.37;;;9.47;;
434;SDS011;204;48.942;9.256;2023-04-28T03:45:39;10.27;;;9.77;;
434;SDS011;204;48.942;9.256;2023-04-28T03:48:05;9.98;;;9.02;;
434;SDS011;204;48.942;9.256;2023-04-28T03:50:31;9.77;;;9.27;;
434;SDS011;204;48.942;9.256;2023-04-28T03:52:57;10.30;;;9.73;;
434;SDS011;204;48.942;9.256;2023-04-28T03:55:22;11.13;;;9.50;;
434;SDS011;204;48.942;9.256;2023-04-28T03:57:49;9.80;;;9.05;;
434;SDS011;204;48.942;9.256;2023-04-28T04:00:15;9.40;;;8.90;;
434;SDS011;204;48.942;9.256;2023-04-28T04:02:41;10.60;;;8.63;;
434;SDS011;204;48.942;9.256;2023-04-28T04:05:07;8.93;;;7.17;;
434;SDS011;204;48.942;9.256;2023-04-28T04:07:32;8.20;;;7.80;;
434;SDS011;204;48.942;9.256;2023-04-28T04:09:58;9.93;;;8.53;;
434;SDS011;204;48.942;9.256;2023-04-28T04:12:23;12.13;;;9.60;;
434;SDS011;204;48.942;9.256;2023-04-28T04:14:49;10.10;;;9.23;;
434;SDS011;204;48.942;9.256;2023-04-28T04:17:14;12.70;;;8.27;;
434;SDS011;204;48.942;9.256;2023-04-28T04:19:40;7.83;;;7.43;;
434;SDS011;204;48.942;9.256;2023-04-28T04:22:06;8.55;;;8.05;;
434;SDS011;204;48.942;9.256;2023-04-28T04:24:32;9.40;;;7.80;;
434;SDS011;204;48.942;9.256;2023-04-28T04:26:57;8.90;;;8.27;;
434;SDS011;204;48.942;9.256;2023-04-28T04:29:23;9.40;;;8.60;;
434;SDS011;204;48.942;9.256;2023-04-28T04:31:49;7.80;;;7.40;;
434;SDS011;204;48.942;9.256;2023-04-28T04:34:14;8.10;;;7.47;;
434;SDS011;204;48.942;9.256;2023-04-28T04:36:40;14.20;;;7.60;;
434;SDS011;204;48.942;9.256;2023-04-28T04:39:05;8.43;;;8.00;;
434;SDS011;204;48.942;9.256;2023-04-28T04:41:31;8.60;;;8.10;;
434;SDS011;204;48.942;9.256;2023-04-28T04:43:57;11.20;;;10.17;;
434;SDS011;204;48.942;9.256;2023-04-28T04:46:22;7.87;;;7.47;;
434;SDS011;204;48.942;9.256;2023-04-28T04:48:48;8.80;;;8.30;;
434;SDS011;204;48.942;9.256;2023-04-28T04:51:13;8.07;;;7.67;;
434;SDS011;204;48.942;9.256;2023-04-28T04:53:39;7.70;;;7.30;;
434;SDS011;204;48.942;9.256;2023-04-28T04:56:05;7.90;;;7.50;;
434;SDS011;204;48.942;9.256;2023-04-28T04:58:30;7.33;;;6.93;;
434;SDS011;204;48.942;9.256;2023-04-28T05:00:56;8.40;;;7.90;;
434;SDS011;204;48.942;9.256;2023-04-28T05:03:22;9.27;;;8.43;;
434;SDS011;204;48.942;9.256;2023-04-28T05:05:48;8.17;;;7.77;;
434;SDS011;204;48.942;9.256;2023-04-28T05:08:13;7.17;;;6.77;;
434;SDS011;204;48.942;9.256;2023-04-28T05:10:39;9.43;;;7.83;;
434;SDS011;204;48.942;9.256;2023-04-28T05:13:04;7.57;;;7.07;;
434;SDS011;204;48.942;9.256;2023-04-28T05:15:31;7.78;;;7.38;;
434;SDS011;204;48.942;9.256;2023-04-28T05:17:56;8.27;;;7.83;;
434;SDS011;204;48.942;9.256;2023-04-28T05:20:22;7.90;;;7.50;;
434;SDS011;204;48.942;9.256;2023-04-28T05:22:48;7.80;;;7.40;;
434;SDS011;204;48.942;9.256;2023-04-28T05:25:13;7.50;;;7.10;;
434;SDS011;204;48.942;9.256;2023-04-28T05:27:39;8.00;;;7.60;;
434;SDS011;204;48.942;9.256;2023-04-28T05:30:05;7.13;;;6.40;;
434;SDS011;204;48.942;9.256;2023-04-28T05:32:32;8.65;;;7.88;;
434;SDS011;204;48.942;9.256;2023-04-28T05:34:58;7.95;;;7.43;;
434;SDS011;204;48.942;9.256;2023-04-28T05:37:24;8.33;;;6.70;;
434;SDS011;204;48.942;9.256;2023-04-28T05:39:49;7.90;;;7.50;;
434;SDS011;204;48.942;9.256;2023-04-28T05:42:15;8.23;;;7.80;;
434;SDS011;204;48.942;9.256;2023-04-28T05:44:41;9.27;;;8.23;;
434;SDS011;204;48.942;9.256;2023-04-28T05:47:07;7.73;;;7.33;;
434;SDS011;204;48.942;9.256;2023-04-28T05:49:32;8.47;;;7.00;;
434;SDS011;204;48.942;9.256;2023-04-28T05:51:58;8.77;;;8.30;;
434;SDS011;204;48.942;9.256;2023-04-28T05:54:24;8.37;;;7.90;;
434;SDS011;204;48.942;9.256;2023-04-28T05:56:49;9.40;;;8.17;;
434;SDS011;204;48.942;9.256;2023-04-28T05:59:15;8.87;;;7.90;;
434;SDS011;204;48.942;9.256;2023-04-28T06:02:06;8.18;;;7.80;;
434;SDS011;204;48.942;9.256;2023-04-28T06:04:51;7.18;;;6.57;;
434;SDS011;204;48.942;9.256;2023-04-28T06:07:36;7.18;;;6.78;;
434;SDS011;204;48.942;9.256;2023-04-28T06:13:50;6.68;;;6.28;;
434;SDS011;204;48.942;9.256;2023-04-28T06:16:41;7.15;;;6.20;;
434;SDS011;204;48.942;9.256;2023-04-28T06:19:32;9.05;;;6.50;;
434;SDS011;204;48.942;9.256;2023-04-28T06:35:49;7.18;;;6.78;;
434;SDS011;204;48.942;9.256;2023-04-28T06:38:15;8.60;;;8.10;;
434;SDS011;204;48.942;9.256;2023-04-28T06:44:02;8.02;;;7.63;;
434;SDS011;204;48.942;9.256;2023-04-28T06:46:29;7.32;;;6.80;;
434;SDS011;204;48.942;9.256;2023-04-28T06:48:55;10.70;;;8.02;;
434;SDS011;204;48.942;9.256;2023-04-28T06:51:21;6.90;;;6.50;;
434;SDS011;204;48.942;9.256;2023-04-28T06:53:46;7.57;;;6.83;;
434;SDS011;204;48.942;9.256;2023-04-28T06:56:15;9.43;;;6.60;;
434;SDS011;204;48.942;9.256;2023-04-28T06:58:40;6.70;;;6.10;;
434;SDS011;204;48.942;9.256;2023-04-28T07:01:06;7.60;;;7.20;;
434;SDS011;204;48.942;9.256;2023-04-28T07:03:31;5.83;;;5.53;;
434;SDS011;204;48.942;9.256;2023-04-28T07:05:57;6.50;;;6.10;;
434;SDS011;204;48.942;9.256;2023-04-28T07:08:23;7.30;;;6.90;;
434;SDS011;204;48.942;9.256;2023-04-28T07:10:48;6.73;;;6.00;;
434;SDS011;204;48.942;9.256;2023-04-28T07:13:14;7.30;;;6.20;;
434;SDS011;204;48.942;9.256;2023-04-28T07:15:40;6.47;;;6.07;;
434;SDS011;204;48.942;9.256;2023-04-28T07:18:05;5.83;;;5.53;;
434;SDS011;204;48.942;9.256;2023-04-28T07:20:31;6.43;;;6.03;;
434;SDS011;204;48.942;9.256;2023-04-28T07:22:56;6.20;;;5.93;;
434;SDS011;204;48.942;9.256;2023-04-28T07:25:22;6.63;;;5.97;;
434;SDS011;204;48.942;9.256;2023-04-28T07:27:47;7.70;;;6.80;;
434;SDS011;204;48.942;9.256;2023-04-28T07:30:14;6.50;;;6.10;;
434;SDS011;204;48.942;9.256;2023-04-28T07:32:39;6.23;;;5.87;;
434;SDS011;204;48.942;9.256;2023-04-28T07:35:06;6.75;;;6.35;;
434;SDS011;204;48.942;9.256;2023-04-28T07:37:31;7.10;;;6.70;;
434;SDS011;204;48.942;9.256;2023-04-28T07:39:57;6.53;;;6.13;;
434;SDS011;204;48.942;9.256;2023-04-28T07:42:23;7.50;;;6.67;;
434;SDS011;204;48.942;9.256;2023-04-28T07:44:48;8.40;;;7.27;;
434;SDS011;204;48.942;9.256;2023-04-28T07:47:14;7.37;;;6.93;;
434;SDS011;204;48.942;9.256;2023-04-28T07:49:39;6.43;;;6.03;;
434;SDS011;204;48.942;9.256;2023-04-28T07:52:05;7.35;;;6.95;;
434;SDS011;204;48.942;9.256;2023-04-28T07:54:31;7.30;;;6.90;;
434;SDS011;204;48.942;9.256;2023-04-28T07:56:56;6.77;;;6.37;;
434;SDS011;204;48.942;9.256;2023-04-28T07:59:22;8.03;;;6.80;;
434;SDS011;204;48.942;9.256;2023-04-28T08:01:48;9.43;;;7.10;;
434;SDS011;204;48.942;9.256;2023-04-28T08:04:13;7.83;;;7.00;;
434;SDS011;204;48.942;9.256;2023-04-28T08:06:39;7.93;;;6.40;;
434;SDS011;204;48.942;9.256;2023-04-28T08:09:05;10.60;;;6.60;;
434;SDS011;204;48.942;9.256;2023-04-28T08:11:30;7.93;;;7.53;;
434;SDS011;204;48.942;9.256;2023-04-28T08:13:57;8.23;;;7.75;;
434;SDS011;204;48.942;9.256;2023-04-28T08:16:26;7.80;;;7.40;;
434;SDS011;204;48.942;9.256;2023-04-28T08:18:52;9.80;;;8.20;;
434;SDS011;204;48.942;9.256;2023-04-28T08:21:17;11.00;;;8.23;;
434;SDS011;204;48.942;9.256;2023-04-28T08:23:43;9.57;;;9.07;;
434;SDS011;204;48.942;9.256;2023-04-28T08:26:08;10.57;;;8.60;;
434;SDS011;204;48.942;9.256;2023-04-28T08:28:34;9.13;;;8.63;;
434;SDS011;204;48.942;9.256;2023-04-28T08:30:59;8.80;;;8.30;;
434;SDS011;204;48.942;9.256;2023-04-28T08:33:25;9.37;;;8.50;;
434;SDS011;204;48.942;9.256;2023-04-28T08:35:51;8.57;;;8.07;;
434;SDS011;204;48.942;9.256;2023-04-28T08:38:16;7.70;;;7.30;;
434;SDS011;204;48.942;9.256;2023-04-28T08:40:42;7.67;;;7.27;;
434;SDS011;204;48.942;9.256;2023-04-28T08:43:08;7.43;;;6.80;;
434;SDS011;204;48.942;9.256;2023-04-28T08:45:41;7.97;;;7.57;;
434;SDS011;204;48.942;9.256;2023-04-28T08:48:18;10.15;;;7.78;;
434;SDS011;204;48.942;9.256;2023-04-28T08:50:49;8.15;;;7.75;;
434;SDS011;204;48.942;9.256;2023-04-28T08:53:22;7.35;;;6.95;;
434;SDS011;204;48.942;9.256;2023-04-28T08:55:55;7.05;;;6.65;;
434;SDS011;204;48.942;9.256;2023-04-28T08:58:25;7.32;;;6.78;;
434;SDS011;204;48.942;9.256;2023-04-28T09:00:51;8.65;;;7.80;;
434;SDS011;204;48.942;9.256;2023-04-28T09:03:18;7.20;;;6.80;;
434;SDS011;204;48.942;9.256;2023-04-28T09:05:44;7.90;;;7.03;;
434;SDS011;204;48.942;9.256;2023-04-28T09:08:10;7.67;;;7.27;;
434;SDS011;204;48.942;9.256;2023-04-28T09:10:38;6.55;;;6.15;;
434;SDS011;204;48.942;9.256;2023-04-28T09:13:04;6.60;;;6.20;;
434;SDS011;204;48.942;9.256;2023-04-28T09:18:00;6.17;;;5.70;;
434;SDS011;204;48.942;9.256;2023-04-28T09:20:30;6.10;;;5.80;;
434;SDS011;204;48.942;9.256;2023-04-28T09:25:38;5.60;;;5.30;;
434;SDS011;204;48.942;9.256;2023-04-28T09:28:18;6.20;;;5.17;;
434;SDS011;204;48.942;9.256;2023-04-28T09:30:45;5.70;;;5.40;;
434;SDS011;204;48.942;9.256;2023-04-28T09:33:11;5.10;;;4.80;;
434;SDS011;204;48.942;9.256;2023-04-28T09:35:37;4.90;;;4.50;;
434;SDS011;204;48.942;9.256;2023-04-28T09:38:04;5.10;;;4.80;;
434;SDS011;204;48.942;9.256;2023-04-28T09:40:30;5.73;;;4.93;;
434;SDS011;204;48.942;9.256;2023-04-28T09:42:56;5.40;;;5.10;;
434;SDS011;204;48.942;9.256;2023-04-28T09:45:22;5.00;;;4.50;;
434;SDS011;204;48.942;9.256;2023-04-28T09:47:48;4.73;;;4.43;;
434;SDS011;204;48.942;9.256;2023-04-28T09:50:14;5.40;;;5.10;;
434;SDS011;204;48.942;9.256;2023-04-28T09:52:47;4.60;;;4.30;;
434;SDS011;204;48.942;9.256;2023-04-28T09:55:21;6.10;;;5.80;;
434;SDS011;204;48.942;9.256;2023-04-28T09:57:48;5.30;;;5.00;;
434;SDS011;204;48.942;9.256;2023-04-28T10:00:16;5.60;;;5.30;;
434;SDS011;204;48.942;9.256;2023-04-28T10:02:42;6.00;;;5.60;;
434;SDS011;204;48.942;9.256;2023-04-28T10:05:08;4.50;;;4.20;;
434;SDS011;204;48.942;9.256;2023-04-28T10:07:34;6.13;;;5.77;;
434;SDS011;204;48.942;9.256;2023-04-28T10:10:00;6.90;;;5.33;;
434;SDS011;204;48.942;9.256;2023-04-28T10:12:28;6.03;;;4.60;;
434;SDS011;204;48.942;9.256;2023-04-28T10:14:53;5.50;;;5.20;;
434;SDS011;204;48.942;9.256;2023-04-28T10:17:20;5.47;;;5.20;;
434;SDS011;204;48.942;9.256;2023-04-28T10:19:49;5.70;;;5.40;;
434;SDS011;204;48.942;9.256;2023-04-28T10:22:33;4.67;;;4.37;;
434;SDS011;204;48.942;9.256;2023-04-28T10:27:40;9.80;;;5.77;;
434;SDS011;204;48.942;9.256;2023-04-28T10:30:14;4.53;;;4.23;;
434;SDS011;204;48.942;9.256;2023-04-28T10:32:47;6.37;;;5.20;;
434;SDS011;204;48.942;9.256;2023-04-28T10:35:39;6.77;;;4.90;;
434;SDS011;204;48.942;9.256;2023-04-28T10:38:13;4.30;;;4.03;;
434;SDS011;204;48.942;9.256;2023-04-28T10:40:43;3.60;;;3.40;;
434;SDS011;204;48.942;9.256;2023-04-28T10:43:13;4.43;;;4.20;;
434;SDS011;204;48.942;9.256;2023-04-28T10:58:48;2.57;;;2.40;;
434;SDS011;204;48.942;9.256;2023-04-28T11:01:23;1.80;;;1.70;;
434;SDS011;204;48.942;9.256;2023-04-28T11:08:52;2.40;;;2.20;;
434;SDS011;204;48.942;9.256;2023-04-28T11:11:43;4.80;;;4.50;;
434;SDS011;204;48.942;9.256;2023-04-28T11:19:19;4.63;;;4.33;;
434;SDS011;204;48.942;9.256;2023-04-28T11:21:46;4.80;;;4.50;;
434;SDS011;204;48.942;9.256;2023-04-28T11:24:13;3.67;;;3.30;;
434;SDS011;204;48.942;9.256;2023-04-28T11:26:39;2.50;;;2.30;;
434;SDS011;204;48.942;9.256;2023-04-28T11:29:05;3.27;;;3.07;;
434;SDS011;204;48.942;9.256;2023-04-28T11:31:31;2.77;;;2.57;;
434;SDS011;204;48.942;9.256;2023-04-28T11:34:07;3.70;;;3.50;;
434;SDS011;204;48.942;9.256;2023-04-28T11:36:41;4.83;;;4.53;;
434;SDS011;204;48.942;9.256;2023-04-28T11:39:10;3.27;;;2.90;;
434;SDS011;204;48.942;9.256;2023-04-28T11:41:38;2.63;;;2.43;;
434;SDS011;204;48.942;9.256;2023-04-28T11:46:53;2.50;;;2.23;;
434;SDS011;204;48.942;9.256;2023-04-28T11:49:29;3.30;;;3.10;;
434;SDS011;204;48.942;9.256;2023-04-28T11:51:57;2.90;;;2.70;;
434;SDS011;204;48.942;9.256;2023-04-28T11:54:29;1.70;;;1.60;;
434;SDS011;204;48.942;9.256;2023-04-28T11:56:56;1.73;;;1.63;;
434;SDS011;204;48.942;9.256;2023-04-28T11:59:29;1.63;;;1.20;;
434;SDS011;204;48.942;9.256;2023-04-28T12:01:58;1.60;;;1.40;;
434;SDS011;204;48.942;9.256;2023-04-28T12:07:00;4.30;;;1.17;;
434;SDS011;204;48.942;9.256;2023-04-28T12:09:31;1.83;;;1.53;;
434;SDS011;204;48.942;9.256;2023-04-28T12:12:03;2.00;;;1.37;;
434;SDS011;204;48.942;9.256;2023-04-28T12:14:30;1.43;;;1.27;;
434;SDS011;204;48.942;9.256;2023-04-28T12:17:00;2.00;;;1.37;;
434;SDS011;204;48.942;9.256;2023-04-28T12:19:26;2.93;;;1.37;;
434;SDS011;204;48.942;9.256;2023-04-28T12:21:58;1.63;;;1.53;;
434;SDS011;204;48.942;9.256;2023-04-28T12:24:29;2.30;;;2.10;;
434;SDS011;204;48.942;9.256;2023-04-28T12:27:12;8.37;;;7.00;;
434;SDS011;204;48.942;9.256;2023-04-28T12:29:39;5.53;;;5.23;;
434;SDS011;204;48.942;9.256;2023-04-28T12:32:07;2.43;;;1.73;;
434;SDS011;204;48.942;9.256;2023-04-28T12:34:34;2.53;;;1.13;;
434;SDS011;204;48.942;9.256;2023-04-28T12:37:04;1.70;;;1.20;;
434;SDS011;204;48.942;9.256;2023-04-28T12:39:37;1.47;;;1.00;;
434;SDS011;204;48.942;9.256;2023-04-28T12:42:04;2.30;;;1.50;;
434;SDS011;204;48.942;9.256;2023-04-28T12:44:33;1.07;;;1.00;;
434;SDS011;204;48.942;9.256;2023-04-28T12:47:01;1.30;;;1.20;;
434;SDS011;204;48.942;9.256;2023-04-28T12:49:27;1.90;;;1.80;;
434;SDS011;204;48.942;9.256;2023-04-28T12:51:53;1.37;;;1.30;;
434;SDS011;204;48.942;9.256;2023-04-28T12:54:19;3.40;;;1.50;;
434;SDS011;204;48.942;9.256;2023-04-28T12:56:44;4.87;;;1.30;;
434;SDS011;204;48.942;9.256;2023-04-28T12:59:10;1.07;;;0.70;;
434;SDS011;204;48.942;9.256;2023-04-28T13:01:35;1.00;;;0.90;;
434;SDS011;204;48.942;9.256;2023-04-28T13:04:01;2.70;;;0.90;;
434;SDS011;204;48.942;9.256;2023-04-28T13:06:27;1.90;;;0.80;;
434;SDS011;204;48.942;9.256;2023-04-28T13:08:53;1.47;;;0.80;;
434;SDS011;204;48.942;9.256;2023-04-28T13:11:19;2.63;;;1.10;;
434;SDS011;204;48.942;9.256;2023-04-28T13:13:45;5.03;;;1.37;;
434;SDS011;204;48.942;9.256;2023-04-28T13:16:10;1.97;;;1.40;;
434;SDS011;204;48.942;9.256;2023-04-28T13:18:38;7.20;;;1.27;;
434;SDS011;204;48.942;9.256;2023-04-28T13:21:03;1.20;;;1.17;;
434;SDS011;204;48.942;9.256;2023-04-28T13:23:29;0.90;;;0.80;;
434;SDS011;204;48.942;9.256;2023-04-28T13:25:55;1.17;;;0.77;;
434;SDS011;204;48.942;9.256;2023-04-28T13:28:21;1.30;;;0.90;;
434;SDS011;204;48.942;9.256;2023-04-28T13:30:46;1.83;;;1.40;;
434;SDS011;204;48.942;9.256;2023-04-28T13:33:12;1.73;;;1.60;;
434;SDS011;204;48.942;9.256;2023-04-28T13:35:37;1.23;;;0.90;;
434;SDS011;204;48.942;9.256;2023-04-28T13:38:03;1.03;;;0.70;;
434;SDS011;204;48.942;9.256;2023-04-28T13:40:29;0.90;;;0.67;;
434;SDS011;204;48.942;9.256;2023-04-28T13:42:55;1.03;;;0.70;;
434;SDS011;204;48.942;9.256;2023-04-28T13:45:21;0.87;;;0.63;;
434;SDS011;204;48.942;9.256;2023-04-28T13:47:46;1.67;;;0.87;;
434;SDS011;204;48.942;9.256;2023-04-28T13:50:13;3.40;;;1.70;;
434;SDS011;204;48.942;9.256;2023-04-28T13:52:39;1.93;;;1.40;;
434;SDS011;204;48.942;9.256;2023-04-28T13:55:05;4.63;;;4.33;;
434;SDS011;204;48.942;9.256;2023-04-28T13:57:31;4.70;;;4.40;;
434;SDS011;204;48.942;9.256;2023-04-28T13:59:56;2.20;;;2.00;;
434;SDS011;204;48.942;9.256;2023-04-28T14:02:22;1.90;;;1.80;;
434;SDS011;204;48.942;9.256;2023-04-28T14:04:48;1.63;;;1.50;;
434;SDS011;204;48.942;9.256;2023-04-28T14:07:14;1.80;;;1.60;;
434;SDS011;204;48.942;9.256;2023-04-28T14:09:40;2.40;;;2.13;;
434;SDS011;204;48.942;9.256;2023-04-28T14:12:06;1.77;;;1.53;;
434;SDS011;204;48.942;9.256;2023-04-28T14:14:32;1.80;;;1.70;;
434;SDS011;204;48.942;9.256;2023-04-28T14:16:58;1.50;;;1.40;;
434;SDS011;204;48.942;9.256;2023-04-28T14:19:23;1.00;;;0.90;;
434;SDS011;204;48.942;9.256;2023-04-28T14:21:51;2.03;;;1.47;;
434;SDS011;204;48.942;9.256;2023-04-28T14:24:17;1.67;;;1.23;;
434;SDS011;204;48.942;9.256;2023-04-28T14:26:43;1.13;;;1.03;;
434;SDS011;204;48.942;9.256;2023-04-28T14:29:09;2.27;;;1.00;;
434;SDS011;204;48.942;9.256;2023-04-28T14:31:34;1.30;;;1.10;;
434;SDS011;204;48.942;9.256;2023-04-28T14:34:00;1.70;;;1.60;;
434;SDS011;204;48.942;9.256;2023-04-28T14:36:27;3.43;;;1.97;;
434;SDS011;204;48.942;9.256;2023-04-28T14:38:56;1.73;;;1.60;;
434;SDS011;204;48.942;9.256;2023-04-28T14:41:21;1.73;;;1.63;;
434;SDS011;204;48.942;9.256;2023-04-28T14:43:47;1.97;;;1.80;;
434;SDS011;204;48.942;9.256;2023-04-28T14:46:13;1.93;;;1.83;;
434;SDS011;204;48.942;9.256;2023-04-28T14:48:38;2.90;;;2.50;;
434;SDS011;204;48.942;9.256;2023-04-28T14:51:04;4.00;;;3.37;;
434;SDS011;204;48.942;9.256;2023-04-28T14:53:29;5.80;;;1.70;;
434;SDS011;204;48.942;9.256;2023-04-28T14:55:56;2.10;;;1.00;;
434;SDS011;204;48.942;9.256;2023-04-28T14:58:23;2.30;;;1.53;;
434;SDS011;204;48.942;9.256;2023-04-28T15:00:48;1.93;;;1.60;;
434;SDS011;204;48.942;9.256;2023-04-28T15:03:14;1.67;;;1.40;;
434;SDS011;204;48.942;9.256;2023-04-28T15:05:40;2.00;;;1.50;;
434;SDS011;204;48.942;9.256;2023-04-28T15:08:06;3.30;;;1.37;;
434;SDS011;204;48.942;9.256;2023-04-28T15:10:36;1.77;;;1.73;;
434;SDS011;204;48.942;9.256;2023-04-28T15:13:03;3.77;;;1.87;;
434;SDS011;204;48.942;9.256;2023-04-28T15:15:29;4.10;;;2.13;;
434;SDS011;204;48.942;9.256;2023-04-28T15:17:54;1.53;;;1.43;;
434;SDS011;204;48.942;9.256;2023-04-28T15:20:25;2.63;;;1.40;;
434;SDS011;204;48.942;9.256;2023-04-28T15:22:51;2.13;;;1.97;;
434;SDS011;204;48.942;9.256;2023-04-28T15:25:17;2.60;;;1.70;;
434;SDS011;204;48.942;9.256;2023-04-28T15:27:43;2.00;;;1.50;;
434;SDS011;204;48.942;9.256;2023-04-28T15:30:08;2.20;;;1.60;;
434;SDS011;204;48.942;9.256;2023-04-28T15:32:35;4.50;;;1.60;;
434;SDS011;204;48.942;9.256;2023-04-28T15:35:00;1.87;;;1.80;;
434;SDS011;204;48.942;9.256;2023-04-28T15:40:07;3.10;;;2.43;;
434;SDS011;204;48.942;9.256;2023-04-28T15:42:34;2.90;;;2.07;;
434;SDS011;204;48.942;9.256;2023-04-28T15:45:01;3.23;;;1.80;;
434;SDS011;204;48.942;9.256;2023-04-28T15:47:26;2.40;;;2.27;;
434;SDS011;204;48.942;9.256;2023-04-28T15:49:53;2.77;;;2.47;;
434;SDS011;204;48.942;9.256;2023-04-28T15:52:19;3.03;;;2.17;;
434;SDS011;204;48.942;9.256;2023-04-28T15:54:46;2.50;;;1.60;;
434;SDS011;204;48.942;9.256;2023-04-28T15:57:12;3.10;;;2.03;;
434;SDS011;204;48.942;9.256;2023-04-28T15:59:37;4.57;;;2.40;;
434;SDS011;204;48.942;9.256;2023-04-28T16:02:03;3.33;;;2.10;;
434;SDS011;204;48.942;9.256;2023-04-28T16:04:29;3.53;;;3.33;;
434;SDS011;204;48.942;9.256;2023-04-28T16:06:54;3.67;;;2.20;;
434;SDS011;204;48.942;9.256;2023-04-28T16:09:22;2.27;;;2.07;;
434;SDS011;204;48.942;9.256;2023-04-28T16:11:48;4.33;;;2.40;;
434;SDS011;204;48.942;9.256;2023-04-28T16:14:14;4.70;;;3.93;;
434;SDS011;204;48.942;9.256;2023-04-28T16:16:39;3.10;;;2.93;;
434;SDS011;204;48.942;9.256;2023-04-28T16:19:05;4.37;;;4.10;;
434;SDS011;204;48.942;9.256;2023-04-28T16:21:31;3.20;;;2.77;;
434;SDS011;204;48.942;9.256;2023-04-28T16:23:57;3.60;;;2.70;;
434;SDS011;204;48.942;9.256;2023-04-28T16:26:22;5.00;;;4.70;;
434;SDS011;204;48.942;9.256;2023-04-28T16:28:48;4.40;;;3.43;;
434;SDS011;204;48.942;9.256;2023-04-28T16:31:14;4.33;;;4.07;;
434;SDS011;204;48.942;9.256;2023-04-28T16:33:40;3.53;;;2.43;;
434;SDS011;204;48.942;9.256;2023-04-28T16:36:06;3.20;;;2.57;;
434;SDS011;204;48.942;9.256;2023-04-28T16:38:32;2.53;;;2.30;;
434;SDS011;204;48.942;9.256;2023-04-28T16:40:58;2.37;;;2.20;;